Time;durP1;ratioP1;P1;durP2;ratioP2;P2;SDS_P1;SDS_P2;PMS_P1;PMS_P2;Temp;Humidity;BMP_temperature;BMP_pressure;BME280_temperature;BME280_humidity;BME280_pressure;Samples;Min_cycle;Max_cycle;Signal;HPM_P1;HPM_P2
2023/08/24 00:00:40;;;;;;;3.47;1.77;;;28.60;54.20;;;;;;4937583;29;20451;-78
2023/08/24 00:03:08;;;;;;;1.70;1.60;;;28.50;54.20;;;;;;4937898;29;20551;-77
2023/08/24 00:05:36;;;;;;;3.37;1.50;;;28.40;54.50;;;;;;4938035;29;20410;-77
2023/08/24 00:08:05;;;;;;;2.27;1.53;;;28.40;54.30;;;;;;4937504;29;20501;-77
2023/08/24 00:10:32;;;;;;;2.70;1.83;;;28.40;54.40;;;;;;4936758;29;20448;-77
2023/08/24 00:13:01;;;;;;;1.93;1.80;;;28.40;54.40;;;;;;4937452;29;20546;-77
2023/08/24 00:15:29;;;;;;;2.10;1.63;;;28.40;54.70;;;;;;4937629;29;20418;-76
2023/08/24 00:17:59;;;;;;;3.50;1.30;;;28.30;54.80;;;;;;4937900;29;20422;-77
2023/08/24 00:20:27;;;;;;;2.30;1.63;;;28.40;54.80;;;;;;4937601;29;20419;-77
2023/08/24 00:22:54;;;;;;;1.50;1.40;;;28.40;54.60;;;;;;4937603;29;20438;-77
2023/08/24 00:25:22;;;;;;;1.60;1.50;;;28.30;54.50;;;;;;4921759;29;20446;-77
2023/08/24 00:27:50;;;;;;;1.60;1.50;;;28.20;54.80;;;;;;4937129;29;20514;-77
2023/08/24 00:30:19;;;;;;;2.17;1.60;;;28.20;54.70;;;;;;4937520;29;20457;-77
2023/08/24 00:32:47;;;;;;;1.50;1.37;;;28.20;55.10;;;;;;4937228;29;20559;-77
2023/08/24 00:35:16;;;;;;;3.67;1.70;;;28.10;55.20;;;;;;4937184;29;20515;-77
2023/08/24 00:37:44;;;;;;;3.63;1.57;;;28.20;55.10;;;;;;4937192;29;20452;-77
2023/08/24 00:40:12;;;;;;;1.53;1.43;;;28.10;54.90;;;;;;4937175;29;20503;-77
2023/08/24 00:42:41;;;;;;;4.70;1.40;;;28.20;55.10;;;;;;4937078;29;20552;-77
2023/08/24 00:45:10;;;;;;;1.63;1.43;;;28.20;54.80;;;;;;4936976;29;20471;-76
2023/08/24 00:47:38;;;;;;;1.53;1.40;;;28.20;55.00;;;;;;4936701;29;20537;-77
2023/08/24 00:50:07;;;;;;;1.70;1.53;;;28.30;54.90;;;;;;4937330;29;20452;-77
2023/08/24 00:52:39;;;;;;;2.07;1.60;;;28.30;54.70;;;;;;4936453;29;21065;-76
2023/08/24 00:55:07;;;;;;;1.60;1.50;;;28.30;54.70;;;;;;4936761;29;20545;-77
2023/08/24 00:57:36;;;;;;;7.30;1.50;;;28.30;54.60;;;;;;4936597;29;20544;-77
2023/08/24 01:00:08;;;;;;;6.50;1.50;;;28.20;54.60;;;;;;4936129;29;20476;-76
2023/08/24 01:02:36;;;;;;;2.00;1.90;;;28.10;55.30;;;;;;4936453;29;20500;-77
2023/08/24 01:05:05;;;;;;;3.13;1.70;;;28.00;55.00;;;;;;4931653;29;20420;-76
2023/08/24 01:07:34;;;;;;;2.20;1.73;;;28.00;55.10;;;;;;4936590;29;20526;-77
2023/08/24 01:10:04;;;;;;;5.80;1.80;;;27.80;55.60;;;;;;4936623;29;20462;-77
2023/08/24 01:12:39;;;;;;;2.80;1.40;;;27.80;55.40;;;;;;4936256;29;20558;-77
2023/08/24 01:15:10;;;;;;;6.50;1.87;;;27.80;55.40;;;;;;4936483;29;20446;-77
2023/08/24 01:17:38;;;;;;;2.53;1.93;;;27.80;55.40;;;;;;4936485;29;20411;-77
2023/08/24 01:20:09;;;;;;;1.40;1.23;;;27.80;55.30;;;;;;4936263;29;20455;-77
2023/08/24 01:22:54;;;;;;;2.07;1.53;;;27.80;55.50;;;;;;4936255;29;20523;-77
2023/08/24 01:25:27;;;;;;;7.27;1.70;;;27.70;55.60;;;;;;4936541;29;20521;-77
2023/08/24 01:27:56;;;;;;;1.70;1.60;;;27.80;55.20;;;;;;4927993;29;20515;-77
2023/08/24 01:30:24;;;;;;;2.40;1.53;;;27.70;55.70;;;;;;4936100;29;20472;-77
2023/08/24 01:32:53;;;;;;;2.47;1.60;;;27.70;55.50;;;;;;4936241;29;20454;-77
2023/08/24 01:35:22;;;;;;;1.83;1.70;;;27.70;55.50;;;;;;4936164;29;20442;-76
2023/08/24 01:37:50;;;;;;;1.77;1.67;;;27.80;55.80;;;;;;4935824;29;20453;-77
2023/08/24 01:40:21;;;;;;;6.30;1.63;;;27.80;55.30;;;;;;4936116;29;20452;-76
2023/08/24 01:42:52;;;;;;;3.20;1.57;;;27.90;55.40;;;;;;4935511;29;20491;-77
2023/08/24 01:45:22;;;;;;;3.77;1.70;;;27.80;54.90;;;;;;4936042;29;20539;-77
2023/08/24 01:47:50;;;;;;;1.87;1.77;;;27.80;55.00;;;;;;4935506;29;20454;-77
2023/08/24 01:50:19;;;;;;;2.30;1.60;;;27.80;55.30;;;;;;4935701;29;20415;-77
2023/08/24 01:52:47;;;;;;;6.27;1.50;;;27.70;55.00;;;;;;4935765;29;20567;-77
2023/08/24 01:55:16;;;;;;;1.70;1.60;;;27.70;55.40;;;;;;4933440;29;20460;-77
2023/08/24 01:57:44;;;;;;;2.80;1.70;;;27.70;55.60;;;;;;4935712;29;20540;-77
2023/08/24 02:00:12;;;;;;;6.20;2.00;;;27.80;55.20;;;;;;4935794;29;20843;-77
2023/08/24 02:02:43;;;;;;;2.20;1.73;;;27.70;55.40;;;;;;4935522;29;20506;-77
2023/08/24 02:05:11;;;;;;;1.73;1.50;;;27.60;55.20;;;;;;4935868;29;20428;-78
2023/08/24 02:07:39;;;;;;;3.60;1.87;;;27.60;55.40;;;;;;4935577;29;20476;-77
2023/08/24 02:13:49;;;;;;;2.33;1.97;;;27.80;55.20;;;;;;4933143;29;20381;-77
2023/08/24 02:16:17;;;;;;;1.90;1.80;;;27.70;55.00;;;;;;4935481;29;20436;-76
2023/08/24 02:18:47;;;;;;;2.23;2.00;;;27.70;55.30;;;;;;4935596;29;20459;-77
2023/08/24 02:21:16;;;;;;;2.90;2.20;;;27.70;55.10;;;;;;4930632;29;20505;-77
2023/08/24 02:23:43;;;;;;;3.43;2.23;;;27.70;55.00;;;;;;4935564;29;20520;-77
2023/08/24 02:26:11;;;;;;;3.03;2.50;;;27.70;54.90;;;;;;4935528;29;20443;-77
2023/08/24 02:28:40;;;;;;;4.83;3.00;;;27.70;55.00;;;;;;4935086;29;20510;-77
2023/08/24 02:31:08;;;;;;;4.97;2.57;;;27.70;54.90;;;;;;4935268;29;20441;-77
2023/08/24 02:33:36;;;;;;;4.23;3.83;;;27.70;54.70;;;;;;4935327;29;20677;-77
2023/08/24 02:36:06;;;;;;;33.60;25.37;;;27.70;54.90;;;;;;4935305;29;20443;-76
2023/08/24 02:38:34;;;;;;;25.47;19.43;;;27.70;55.20;;;;;;4919482;29;20491;-76
2023/08/24 02:41:03;;;;;;;35.80;27.07;;;27.80;55.30;;;;;;4935275;29;20452;-77
2023/08/24 02:43:31;;;;;;;38.50;28.30;;;27.80;55.20;;;;;;4927395;29;20443;-77
2023/08/24 02:46:03;;;;;;;38.43;27.63;;;27.90;54.90;;;;;;4934978;29;20444;-76
2023/08/24 02:48:31;;;;;;;37.93;29.30;;;27.90;54.80;;;;;;4935237;29;20490;-76
2023/08/24 02:50:59;;;;;;;40.60;31.33;;;28.00;54.70;;;;;;4935069;29;20477;-77
2023/08/24 02:53:28;;;;;;;37.90;29.73;;;27.90;54.50;;;;;;4934830;29;20515;-76
2023/08/24 02:55:56;;;;;;;36.97;28.90;;;27.90;54.60;;;;;;4934850;29;20455;-77
2023/08/24 02:58:24;;;;;;;30.93;25.37;;;27.80;54.80;;;;;;4934888;29;20478;-77
2023/08/24 03:00:52;;;;;;;30.97;24.80;;;27.80;55.00;;;;;;4934843;29;20458;-76
2023/08/24 03:03:20;;;;;;;33.20;25.40;;;27.80;54.80;;;;;;4934931;29;20430;-77
2023/08/24 03:05:55;;;;;;;30.87;22.13;;;27.70;54.60;;;;;;4934761;29;21038;-76
2023/08/24 03:08:23;;;;;;;27.70;21.30;;;27.70;55.00;;;;;;4934928;29;20489;-77
2023/08/24 03:10:52;;;;;;;24.23;19.50;;;27.70;55.30;;;;;;4934823;29;20484;-77
2023/08/24 03:13:20;;;;;;;31.67;19.93;;;27.70;55.00;;;;;;4934858;29;20510;-76
2023/08/24 03:15:49;;;;;;;21.23;17.10;;;27.70;55.20;;;;;;4934884;29;20481;-76
2023/08/24 03:18:17;;;;;;;30.23;23.23;;;27.70;55.20;;;;;;4934866;29;20424;-77
2023/08/24 03:20:46;;;;;;;23.90;19.43;;;27.70;55.20;;;;;;4934797;29;20427;-76
2023/08/24 03:23:14;;;;;;;22.60;17.30;;;27.50;55.40;;;;;;4936509;29;20504;-77
2023/08/24 03:25:42;;;;;;;20.40;16.17;;;27.50;55.40;;;;;;4938466;29;20989;-76
2023/08/24 03:28:11;;;;;;;23.03;17.63;;;27.50;55.60;;;;;;4938615;29;20431;-76
2023/08/24 03:30:40;;;;;;;30.40;18.63;;;27.50;55.80;;;;;;4922856;29;20461;-77
2023/08/24 03:33:07;;;;;;;15.53;13.30;;;27.50;55.80;;;;;;4938403;29;20466;-77
2023/08/24 03:35:36;;;;;;;17.80;12.70;;;27.60;55.70;;;;;;4933821;29;20507;-76
2023/08/24 03:38:04;;;;;;;16.90;11.53;;;27.70;55.20;;;;;;4938296;29;20475;-77
2023/08/24 03:40:32;;;;;;;14.80;10.73;;;27.60;55.20;;;;;;4938357;29;20535;-77
2023/08/24 03:43:01;;;;;;;11.63;9.87;;;27.60;55.30;;;;;;4938154;29;20441;-77
2023/08/24 03:45:30;;;;;;;11.00;8.80;;;27.60;55.40;;;;;;4938127;29;20546;-76
2023/08/24 03:47:59;;;;;;;12.90;9.30;;;27.50;55.60;;;;;;4938281;29;20426;-76
2023/08/24 03:50:27;;;;;;;11.87;9.20;;;27.60;55.50;;;;;;4937938;29;20450;-75
2023/08/24 03:52:55;;;;;;;9.97;8.50;;;27.60;56.00;;;;;;4938085;29;20530;-75
2023/08/24 03:55:23;;;;;;;8.80;7.17;;;27.60;55.20;;;;;;4938099;29;20499;-77
2023/08/24 03:57:51;;;;;;;8.83;7.00;;;27.50;55.50;;;;;;4937962;29;20486;-77
2023/08/24 04:00:19;;;;;;;8.27;7.47;;;27.40;55.50;;;;;;4937965;29;20431;-75
2023/08/24 04:02:49;;;;;;;9.10;6.70;;;27.40;55.70;;;;;;4937792;29;20555;-76
2023/08/24 04:05:17;;;;;;;7.93;7.23;;;27.30;55.80;;;;;;4937725;29;20474;-77
2023/08/24 04:07:45;;;;;;;9.60;6.10;;;27.40;56.10;;;;;;4937589;28;20459;-76
2023/08/24 04:10:13;;;;;;;7.00;5.90;;;27.50;55.80;;;;;;4937118;29;20458;-77
2023/08/24 04:12:42;;;;;;;6.00;5.33;;;27.50;55.60;;;;;;4938443;29;20475;-77
2023/08/24 04:15:10;;;;;;;5.73;5.10;;;27.50;55.60;;;;;;4937654;29;20518;-77
2023/08/24 04:17:38;;;;;;;4.97;4.40;;;27.50;55.70;;;;;;4937575;29;20502;-76
2023/08/24 04:20:12;;;;;;;6.33;5.30;;;27.50;55.70;;;;;;4937680;29;20811;-76
2023/08/24 04:22:40;;;;;;;8.37;5.40;;;27.50;55.40;;;;;;4937557;29;20478;-76
2023/08/24 04:25:08;;;;;;;13.27;4.77;;;27.50;55.10;;;;;;4937676;29;20444;-77
2023/08/24 04:27:36;;;;;;;6.10;4.53;;;27.50;55.60;;;;;;4937032;29;20448;-77
2023/08/24 04:30:05;;;;;;;5.23;4.73;;;27.50;55.50;;;;;;4937207;29;20526;-77
2023/08/24 04:32:33;;;;;;;5.87;4.30;;;27.50;55.30;;;;;;4936961;29;20547;-77
2023/08/24 04:35:01;;;;;;;5.57;4.10;;;27.50;55.50;;;;;;4936731;29;20418;-77
2023/08/24 04:37:30;;;;;;;5.30;4.17;;;27.50;55.60;;;;;;4937058;29;20456;-76
2023/08/24 04:39:58;;;;;;;4.20;3.50;;;27.50;55.30;;;;;;4937337;29;20415;-76
2023/08/24 04:42:26;;;;;;;9.40;4.00;;;27.40;55.60;;;;;;4937143;29;20960;-77
2023/08/24 04:44:53;;;;;;;6.10;4.10;;;27.40;55.80;;;;;;4937326;29;20505;-77
2023/08/24 04:47:21;;;;;;;3.53;3.33;;;27.30;56.10;;;;;;4937321;29;20520;-76
2023/08/24 04:49:49;;;;;;;6.03;4.20;;;27.30;56.00;;;;;;4936258;29;20475;-75
2023/08/24 04:52:17;;;;;;;4.17;3.87;;;27.30;56.00;;;;;;4935098;29;20510;-77
2023/08/24 04:54:46;;;;;;;4.80;4.40;;;27.20;56.00;;;;;;4936748;29;20452;-76
2023/08/24 04:57:15;;;;;;;5.17;4.27;;;27.20;56.40;;;;;;4936635;29;20464;-76
2023/08/24 04:59:43;;;;;;;4.53;3.53;;;27.20;56.40;;;;;;4936678;29;20467;-75
2023/08/24 05:02:11;;;;;;;4.33;3.97;;;27.20;56.10;;;;;;4936499;29;20548;-76
2023/08/24 05:04:39;;;;;;;4.87;4.03;;;27.30;56.50;;;;;;4936285;29;20463;-76
2023/08/24 05:07:07;;;;;;;5.97;3.50;;;27.40;56.10;;;;;;4936121;29;20446;-77
2023/08/24 05:09:35;;;;;;;6.37;4.00;;;27.40;56.10;;;;;;4936307;29;20471;-76
2023/08/24 05:12:05;;;;;;;17.67;9.67;;;27.50;55.90;;;;;;4936143;29;20538;-75
2023/08/24 05:14:34;;;;;;;4.83;3.83;;;27.50;56.00;;;;;;4936362;29;20456;-76
2023/08/24 05:17:02;;;;;;;4.53;3.53;;;27.50;56.00;;;;;;4936390;29;20452;-77
2023/08/24 05:19:30;;;;;;;6.87;5.00;;;27.50;55.90;;;;;;4936236;29;20943;-77
2023/08/24 05:21:58;;;;;;;3.83;3.17;;;27.40;56.20;;;;;;4936500;29;20491;-76
2023/08/24 05:24:26;;;;;;;5.60;3.90;;;27.40;56.30;;;;;;4936557;29;20547;-77
2023/08/24 05:26:54;;;;;;;5.73;4.67;;;27.40;56.30;;;;;;4936553;29;20452;-77
2023/08/24 05:29:23;;;;;;;7.23;4.57;;;27.50;56.60;;;;;;4936396;29;20422;-77
2023/08/24 05:31:51;;;;;;;6.80;3.93;;;27.50;56.20;;;;;;4936519;29;20525;-77
2023/08/24 05:34:19;;;;;;;7.03;4.67;;;27.50;56.00;;;;;;4936547;29;20535;-77
2023/08/24 05:36:47;;;;;;;5.40;3.80;;;27.50;55.90;;;;;;4936436;29;20458;-76
2023/08/24 05:39:15;;;;;;;6.00;4.20;;;27.50;56.30;;;;;;4936634;29;20429;-77
2023/08/24 05:41:43;;;;;;;4.47;4.07;;;27.60;56.20;;;;;;4936238;29;20446;-77
2023/08/24 05:44:11;;;;;;;5.60;4.23;;;27.60;55.90;;;;;;4937883;29;20551;-77
2023/08/24 05:46:40;;;;;;;4.43;4.03;;;27.60;56.10;;;;;;4940179;29;20463;-77
2023/08/24 05:49:08;;;;;;;5.17;4.00;;;27.70;56.10;;;;;;4940481;29;20947;-77
2023/08/24 05:51:36;;;;;;;5.77;3.37;;;27.70;56.00;;;;;;4939585;29;20515;-77
2023/08/24 05:54:04;;;;;;;5.43;4.93;;;27.70;55.80;;;;;;4940313;29;20468;-77
2023/08/24 05:56:32;;;;;;;6.47;4.13;;;27.60;55.90;;;;;;4940032;29;20444;-76
2023/08/24 05:59:01;;;;;;;4.27;3.87;;;27.70;55.90;;;;;;4940215;29;20475;-76
2023/08/24 06:01:32;;;;;;;6.43;4.47;;;27.70;55.70;;;;;;4940619;29;20446;-77
2023/08/24 06:04:01;;;;;;;4.13;3.80;;;27.60;55.60;;;;;;4940892;29;20422;-77
2023/08/24 06:06:29;;;;;;;4.80;3.70;;;27.50;56.20;;;;;;4937377;29;20593;-76
2023/08/24 06:08:57;;;;;;;4.57;3.33;;;27.40;56.20;;;;;;4941456;29;20535;-77
2023/08/24 06:11:25;;;;;;;5.03;3.17;;;27.40;56.80;;;;;;4941554;29;20451;-77
2023/08/24 06:13:54;;;;;;;4.47;2.77;;;27.60;56.40;;;;;;4936682;29;20471;-77
2023/08/24 06:16:22;;;;;;;3.17;2.77;;;27.70;56.10;;;;;;4935445;29;20450;-77
2023/08/24 06:18:50;;;;;;;5.10;3.37;;;27.80;55.80;;;;;;4935447;29;20451;-77
2023/08/24 06:21:20;;;;;;;4.90;3.77;;;27.70;55.80;;;;;;4935282;29;20435;-77
2023/08/24 06:23:48;;;;;;;4.20;3.40;;;27.60;55.40;;;;;;4935482;29;20479;-77
2023/08/24 06:26:15;;;;;;;8.57;3.10;;;27.40;56.00;;;;;;4929813;29;20418;-76
2023/08/24 06:28:43;;;;;;;4.73;3.00;;;27.40;56.20;;;;;;4935626;29;20433;-76
2023/08/24 06:31:11;;;;;;;8.27;2.80;;;27.50;56.60;;;;;;4934497;29;20530;-77
2023/08/24 06:33:39;;;;;;;3.03;2.43;;;27.60;55.80;;;;;;4935170;29;20453;-76
2023/08/24 06:36:08;;;;;;;4.17;2.50;;;27.70;56.30;;;;;;4935254;29;20455;-77
2023/08/24 06:38:37;;;;;;;2.13;2.00;;;27.80;55.90;;;;;;4935005;29;20542;-77
2023/08/24 06:41:05;;;;;;;5.43;2.10;;;27.90;55.50;;;;;;4935140;29;20476;-76
2023/08/24 06:43:33;;;;;;;2.80;2.00;;;28.00;55.30;;;;;;4935141;29;20959;-77
2023/08/24 06:46:01;;;;;;;2.17;2.00;;;28.10;55.20;;;;;;4935199;29;20450;-76
2023/08/24 06:48:29;;;;;;;4.30;2.17;;;28.20;55.00;;;;;;4935370;29;20460;-77
2023/08/24 06:50:58;;;;;;;2.60;2.30;;;28.20;54.60;;;;;;4934854;29;20526;-77
2023/08/24 06:53:26;;;;;;;7.03;2.97;;;28.30;54.60;;;;;;4934416;29;20559;-77
2023/08/24 06:55:56;;;;;;;4.27;2.50;;;28.00;55.20;;;;;;4934509;29;20438;-77
2023/08/24 06:58:24;;;;;;;6.73;3.07;;;28.10;55.60;;;;;;4938637;29;20486;-75
2023/08/24 07:00:52;;;;;;;5.57;2.90;;;28.20;55.10;;;;;;4938559;29;20499;-76
2023/08/24 07:03:20;;;;;;;8.60;3.40;;;28.30;54.80;;;;;;4938314;29;20585;-75
2023/08/24 07:05:48;;;;;;;5.73;3.23;;;28.40;54.60;;;;;;4938328;29;20475;-75
2023/08/24 07:08:16;;;;;;;8.53;3.23;;;28.40;54.50;;;;;;4933416;29;20502;-75
2023/08/24 07:10:43;;;;;;;4.20;3.23;;;28.40;54.60;;;;;;4938216;29;20478;-77
2023/08/24 07:13:13;;;;;;;4.70;2.70;;;28.50;54.70;;;;;;4938124;29;20477;-76
2023/08/24 07:15:41;;;;;;;4.23;2.80;;;28.60;54.50;;;;;;4933863;29;20616;-76
2023/08/24 07:18:08;;;;;;;3.60;2.60;;;28.60;54.60;;;;;;4934220;29;20434;-76
2023/08/24 07:20:37;;;;;;;2.83;2.07;;;28.60;54.70;;;;;;4934768;29;20443;-76
2023/08/24 07:23:05;;;;;;;8.57;2.33;;;28.70;54.70;;;;;;4936861;29;20471;-76
2023/08/24 07:25:33;;;;;;;5.93;2.50;;;28.70;54.50;;;;;;4935353;29;20472;-76
2023/08/24 07:28:03;;;;;;;4.00;2.57;;;28.80;54.20;;;;;;4931630;29;21017;-76
2023/08/24 07:30:32;;;;;;;6.87;3.20;;;28.90;54.00;;;;;;4931237;29;20552;-76
2023/08/24 07:33:02;;;;;;;5.00;2.53;;;28.90;53.80;;;;;;4930342;29;20999;-76
2023/08/24 07:35:31;;;;;;;4.10;2.47;;;29.00;53.80;;;;;;4931974;29;20426;-76
2023/08/24 07:38:00;;;;;;;3.60;2.50;;;29.10;53.60;;;;;;4937730;29;20527;-76
2023/08/24 07:40:29;;;;;;;6.23;2.90;;;29.10;53.00;;;;;;4938112;29;20490;-76
2023/08/24 07:42:57;;;;;;;4.37;2.47;;;29.00;53.60;;;;;;4938224;29;20477;-75
2023/08/24 07:45:25;;;;;;;4.40;2.20;;;29.10;53.00;;;;;;4938459;29;20448;-75
2023/08/24 07:47:54;;;;;;;5.47;2.20;;;29.00;53.40;;;;;;4936835;29;20430;-75
2023/08/24 07:50:23;;;;;;;4.00;2.20;;;28.80;53.20;;;;;;4938224;29;20418;-76
2023/08/24 07:52:51;;;;;;;4.87;2.37;;;28.70;54.60;;;;;;4933481;29;20430;-75
2023/08/24 07:55:22;;;;;;;5.77;2.43;;;28.90;53.50;;;;;;4935622;29;20451;-76
2023/08/24 07:57:50;;;;;;;5.57;2.20;;;28.70;53.60;;;;;;4938171;29;20439;-76
2023/08/24 08:00:19;;;;;;;2.20;2.07;;;28.80;53.70;;;;;;4937361;29;20444;-75
2023/08/24 08:02:47;;;;;;;6.57;2.67;;;28.90;52.70;;;;;;4930257;29;20515;-75
2023/08/24 08:05:16;;;;;;;2.30;2.10;;;28.70;52.60;;;;;;4930984;29;20452;-75
2023/08/24 08:07:44;;;;;;;2.40;1.63;;;28.50;54.20;;;;;;4932731;29;20528;-74
2023/08/24 08:10:12;;;;;;;1.80;1.63;;;28.90;53.70;;;;;;4931207;29;20440;-76
2023/08/24 08:12:39;;;;;;;2.70;1.70;;;29.10;52.80;;;;;;4933619;29;20811;-76
2023/08/24 08:15:08;;;;;;;3.03;2.10;;;29.50;51.90;;;;;;4934358;29;20506;-77
2023/08/24 08:17:36;;;;;;;2.20;1.97;;;29.30;51.40;;;;;;4930286;29;20440;-77
2023/08/24 08:20:05;;;;;;;5.47;2.20;;;29.00;51.50;;;;;;4938572;29;20450;-77
2023/08/24 08:22:38;;;;;;;7.90;2.57;;;29.00;52.20;;;;;;4933765;29;20467;-77
2023/08/24 08:25:06;;;;;;;2.80;2.40;;;29.00;52.40;;;;;;4935004;29;20458;-76
2023/08/24 08:27:34;;;;;;;3.33;1.70;;;29.00;51.80;;;;;;4927873;29;20527;-76
2023/08/24 08:30:04;;;;;;;2.40;1.43;;;29.20;52.90;;;;;;4936551;29;20477;-77
2023/08/24 08:32:33;;;;;;;4.47;2.07;;;29.60;52.40;;;;;;4932113;29;20484;-76
2023/08/24 08:35:01;;;;;;;3.93;1.87;;;29.80;51.40;;;;;;4936037;29;20487;-76
2023/08/24 08:37:31;;;;;;;3.90;2.07;;;29.90;51.50;;;;;;4931172;29;20521;-76
2023/08/24 08:40:01;;;;;;;3.43;1.70;;;30.00;51.20;;;;;;4928673;29;20447;-76
2023/08/24 08:42:31;;;;;;;5.80;1.87;;;30.30;51.10;;;;;;4928743;29;20430;-75
2023/08/24 08:44:58;;;;;;;4.40;1.80;;;30.50;50.60;;;;;;4928655;29;20538;-76
2023/08/24 08:47:27;;;;;;;5.10;1.97;;;30.60;50.20;;;;;;4926697;29;20495;-76
2023/08/24 08:49:55;;;;;;;5.30;1.67;;;30.50;49.60;;;;;;4930479;29;20448;-76
2023/08/24 08:52:25;;;;;;;2.50;1.63;;;30.70;50.30;;;;;;4930786;29;20527;-76
2023/08/24 08:54:53;;;;;;;6.47;1.90;;;30.80;49.40;;;;;;4930091;29;20433;-76
2023/08/24 08:57:23;;;;;;;10.50;2.47;;;30.80;48.80;;;;;;4931336;29;20459;-76
2023/08/24 08:59:52;;;;;;;2.20;1.93;;;30.40;48.20;;;;;;4928881;29;20441;-76
2023/08/24 09:02:20;;;;;;;5.03;2.00;;;30.30;48.80;;;;;;4934933;29;20516;-76
2023/08/24 09:04:48;;;;;;;3.80;1.70;;;30.50;48.70;;;;;;4936651;29;20414;-76
2023/08/24 09:07:17;;;;;;;2.20;1.50;;;30.70;49.60;;;;;;4936374;29;20876;-76
2023/08/24 09:09:44;;;;;;;6.30;1.80;;;31.00;49.10;;;;;;4933961;29;20797;-76
2023/08/24 09:12:12;;;;;;;4.33;1.40;;;31.20;48.60;;;;;;4927178;29;20549;-76
2023/08/24 09:14:41;;;;;;;2.93;1.80;;;31.30;48.20;;;;;;4932738;29;20440;-76
2023/08/24 09:17:09;;;;;;;5.30;1.67;;;31.40;48.20;;;;;;4930753;29;20456;-76
2023/08/24 09:19:38;;;;;;;3.03;2.00;;;31.60;47.50;;;;;;4932766;29;20445;-76
2023/08/24 09:22:06;;;;;;;5.10;2.13;;;31.60;48.10;;;;;;4930491;29;20483;-75
2023/08/24 09:24:36;;;;;;;7.53;2.60;;;31.80;47.30;;;;;;4927741;29;20419;-76
2023/08/24 09:27:06;;;;;;;2.33;1.97;;;31.60;47.00;;;;;;4934905;29;20712;-75
2023/08/24 09:29:37;;;;;;;2.67;1.83;;;31.70;47.80;;;;;;4936740;29;20475;-76
2023/08/24 09:32:08;;;;;;;1.60;1.50;;;31.80;47.00;;;;;;4933534;29;20523;-76
2023/08/24 09:34:37;;;;;;;3.23;1.60;;;31.90;47.50;;;;;;4927321;29;20432;-77
2023/08/24 09:37:05;;;;;;;2.00;1.70;;;31.90;47.40;;;;;;4932518;29;20436;-75
2023/08/24 09:39:33;;;;;;;3.90;1.73;;;31.90;47.20;;;;;;4928469;29;20535;-76
2023/08/24 09:42:02;;;;;;;1.93;1.80;;;32.00;47.30;;;;;;4929513;29;20455;-76
2023/08/24 09:44:32;;;;;;;6.27;2.37;;;32.00;47.20;;;;;;4935221;29;20450;-76
2023/08/24 09:46:59;;;;;;;2.30;2.10;;;32.00;46.90;;;;;;4933132;29;20497;-76
2023/08/24 09:49:29;;;;;;;4.10;2.20;;;32.10;47.20;;;;;;4927986;29;20849;-76
2023/08/24 09:51:58;;;;;;;4.00;3.00;;;32.10;47.20;;;;;;4932309;29;20519;-76
2023/08/24 09:54:28;;;;;;;4.93;2.77;;;32.00;46.40;;;;;;4930183;29;20511;-76
2023/08/24 09:56:56;;;;;;;5.20;2.93;;;31.80;47.00;;;;;;4931060;29;20493;-75
2023/08/24 09:59:24;;;;;;;6.97;3.27;;;31.80;47.10;;;;;;4926853;29;20500;-76
2023/08/24 10:01:54;;;;;;;6.90;2.80;;;31.70;46.90;;;;;;4929857;29;20511;-76
2023/08/24 10:04:23;;;;;;;1.70;1.60;;;31.60;47.00;;;;;;4929161;29;20440;-75
2023/08/24 10:06:57;;;;;;;4.20;1.87;;;31.80;47.00;;;;;;4925617;29;20441;-75
2023/08/24 10:09:28;;;;;;;7.13;3.20;;;32.00;47.10;;;;;;4931234;29;20449;-75
2023/08/24 10:12:00;;;;;;;5.70;2.80;;;32.10;46.40;;;;;;4926334;29;20550;-76
2023/08/24 10:14:30;;;;;;;3.20;2.80;;;31.90;46.20;;;;;;4933215;29;20792;-76
2023/08/24 10:16:57;;;;;;;9.30;2.90;;;31.80;47.00;;;;;;4931566;29;20432;-77
2023/08/24 10:19:25;;;;;;;4.20;2.03;;;31.90;46.90;;;;;;4929897;29;20429;-77
2023/08/24 10:21:57;;;;;;;3.30;2.07;;;32.10;46.70;;;;;;4929194;29;20460;-75
2023/08/24 10:24:25;;;;;;;4.20;2.20;;;32.10;46.80;;;;;;4930335;29;20440;-77
2023/08/24 10:26:52;;;;;;;6.80;3.80;;;32.10;46.60;;;;;;4926016;29;21027;-76
2023/08/24 10:29:20;;;;;;;7.00;3.00;;;32.10;46.80;;;;;;4928546;29;20475;-77
2023/08/24 10:31:49;;;;;;;5.20;3.20;;;32.10;46.70;;;;;;4929465;29;20483;-77
2023/08/24 10:34:16;;;;;;;3.33;2.47;;;32.10;46.80;;;;;;4930189;29;20554;-77
2023/08/24 10:36:45;;;;;;;2.53;2.33;;;32.10;46.90;;;;;;4924164;29;20540;-77
2023/08/24 10:39:14;;;;;;;3.50;2.50;;;32.20;47.00;;;;;;4932070;29;20483;-78
2023/08/24 10:41:48;;;;;;;4.10;3.10;;;32.20;47.10;;;;;;4930953;29;20963;-77
2023/08/24 10:44:25;;;;;;;5.57;2.70;;;32.20;46.50;;;;;;4934359;29;20502;-77
2023/08/24 10:47:13;;;;;;;4.43;2.27;;;32.20;47.20;;;;;;4934877;29;20543;-78
2023/08/24 10:49:41;;;;;;;3.07;2.77;;;32.30;47.10;;;;;;4932324;29;20449;-76
2023/08/24 10:52:18;;;;;;;5.70;2.40;;;32.30;47.20;;;;;;4934920;29;20471;-77
2023/08/24 10:54:48;;;;;;;5.87;2.60;;;32.30;47.00;;;;;;4933972;29;20462;-77
2023/08/24 10:57:20;;;;;;;4.00;2.60;;;32.30;47.20;;;;;;4933854;29;20423;-77
2023/08/24 11:00:05;;;;;;;6.27;2.90;;;32.30;47.40;;;;;;4933789;29;20511;-77
2023/08/24 11:02:42;;;;;;;3.27;3.00;;;32.20;47.00;;;;;;4933872;29;20488;-77
2023/08/24 11:05:18;;;;;;;6.40;2.87;;;32.20;47.20;;;;;;4933731;29;20454;-77
2023/08/24 11:07:50;;;;;;;2.70;2.47;;;32.20;47.30;;;;;;4933331;29;20499;-78
2023/08/24 11:10:19;;;;;;;5.70;2.97;;;32.20;47.10;;;;;;4933278;29;20447;-80
2023/08/24 11:13:12;;;;;;;2.70;2.50;;;32.20;47.10;;;;;;4932133;29;20483;-78
2023/08/24 11:15:41;;;;;;;2.33;2.20;;;32.20;47.10;;;;;;4932468;29;20459;-78
2023/08/24 11:18:16;;;;;;;6.57;2.60;;;32.30;47.30;;;;;;4932081;29;20532;-75
2023/08/24 11:20:44;;;;;;;2.73;2.53;;;32.30;47.20;;;;;;4932856;29;20546;-77
2023/08/24 11:23:13;;;;;;;3.60;2.47;;;32.40;47.20;;;;;;4933079;29;20499;-77
2023/08/24 11:25:42;;;;;;;2.53;2.30;;;32.30;47.00;;;;;;4933575;29;20896;-77
2023/08/24 11:28:10;;;;;;;5.63;2.63;;;32.30;47.10;;;;;;4933230;29;20444;-78
2023/08/24 11:30:38;;;;;;;2.70;2.60;;;32.40;47.10;;;;;;4933738;29;20471;-77
2023/08/24 11:33:06;;;;;;;2.93;2.70;;;32.40;46.90;;;;;;4933185;29;20486;-77
2023/08/24 11:35:37;;;;;;;4.10;2.60;;;32.50;47.10;;;;;;4933434;29;20456;-77
2023/08/24 11:38:05;;;;;;;3.40;3.10;;;32.60;47.00;;;;;;4933246;29;20530;-77
2023/08/24 11:40:33;;;;;;;3.37;3.17;;;32.70;46.80;;;;;;4933685;29;20572;-78
2023/08/24 11:43:04;;;;;;;9.97;3.63;;;32.80;46.20;;;;;;4933360;29;20530;-78
2023/08/24 11:45:32;;;;;;;4.90;3.23;;;32.80;46.60;;;;;;4929467;29;20943;-77
2023/08/24 11:48:01;;;;;;;3.20;3.00;;;32.70;46.70;;;;;;4936666;29;20452;-78
2023/08/24 11:50:30;;;;;;;5.17;3.83;;;32.80;46.70;;;;;;4929465;29;20471;-78
2023/08/24 11:52:57;;;;;;;4.43;2.70;;;32.80;46.40;;;;;;4936712;29;20479;-77
2023/08/24 11:55:25;;;;;;;2.87;2.73;;;33.00;46.60;;;;;;4936844;29;20460;-75
2023/08/24 11:57:53;;;;;;;3.87;3.20;;;33.10;46.80;;;;;;4936615;29;20535;-77
2023/08/24 12:00:23;;;;;;;4.17;3.40;;;33.10;45.60;;;;;;4936428;29;20456;-77
2023/08/24 12:02:51;;;;;;;4.03;3.23;;;33.10;45.20;;;;;;4934065;29;20471;-77
2023/08/24 12:05:23;;;;;;;6.93;3.47;;;33.10;45.30;;;;;;4935215;29;20456;-77
2023/08/24 12:07:53;;;;;;;3.77;3.37;;;33.10;45.20;;;;;;4936576;29;20488;-77
2023/08/24 12:10:21;;;;;;;4.63;2.93;;;33.00;45.60;;;;;;4936593;29;20535;-78
2023/08/24 12:12:49;;;;;;;6.73;3.53;;;32.90;45.70;;;;;;4936108;29;20480;-78
2023/08/24 12:15:19;;;;;;;3.10;2.90;;;32.80;45.80;;;;;;4936374;29;20515;-78
2023/08/24 12:17:49;;;;;;;3.03;2.83;;;32.70;46.10;;;;;;4936299;29;20517;-78
2023/08/24 12:20:21;;;;;;;3.07;2.77;;;32.70;46.10;;;;;;4936199;29;20514;-77
2023/08/24 12:22:53;;;;;;;6.60;2.93;;;32.60;46.20;;;;;;4936248;29;20483;-77
2023/08/24 12:25:24;;;;;;;8.40;3.63;;;32.60;46.20;;;;;;4928455;29;20945;-77
2023/08/24 12:27:52;;;;;;;3.47;2.80;;;32.60;45.90;;;;;;4936218;29;20531;-79
2023/08/24 12:30:21;;;;;;;6.00;2.70;;;32.50;46.20;;;;;;4936064;29;20436;-77
2023/08/24 12:32:51;;;;;;;5.47;3.20;;;32.50;46.30;;;;;;4935995;29;20463;-77
2023/08/24 12:35:20;;;;;;;2.73;2.60;;;32.50;46.20;;;;;;4936320;29;20395;-77
2023/08/24 12:37:47;;;;;;;3.87;2.90;;;32.50;46.50;;;;;;4935636;29;20440;-77
2023/08/24 12:40:16;;;;;;;4.57;2.60;;;32.50;46.20;;;;;;4935876;29;20494;-78
2023/08/24 12:42:43;;;;;;;4.17;2.87;;;32.50;46.80;;;;;;4935798;29;20552;-77
2023/08/24 12:45:11;;;;;;;4.13;2.83;;;32.40;46.60;;;;;;4935434;29;20428;-77
2023/08/24 12:47:39;;;;;;;6.70;2.63;;;32.40;46.70;;;;;;4935907;29;20504;-78
2023/08/24 12:50:09;;;;;;;4.07;3.07;;;32.40;46.60;;;;;;4935679;29;20440;-78
2023/08/24 12:52:37;;;;;;;4.90;3.20;;;32.40;46.60;;;;;;4935736;29;20542;-78
2023/08/24 12:55:06;;;;;;;11.50;3.60;;;32.40;46.90;;;;;;4935666;29;20471;-78
2023/08/24 12:57:34;;;;;;;3.27;3.00;;;32.40;47.00;;;;;;4935532;29;20531;-77